Time;durP1;ratioP1;P1;durP2;ratioP2;P2;SDS_P1;SDS_P2;PMS_P1;PMS_P2;Temp;Humidity;BMP_temperature;BMP_pressure;BME280_temperature;BME280_humidity;BME280_pressure;Samples;Min_cycle;Max_cycle;Signal;HPM_P1;HPM_P2
2021/11/09 00:02:11;;;;;;;20.92;5.05;;;;;;;10.69;55.32;99174.53;5133726;27;20026;-52
2021/11/09 00:04:40;;;;;;;15.55;4.45;;;;;;;10.75;55.08;99170.34;5133667;27;20030;-52
2021/11/09 00:07:14;;;;;;;17.80;6.05;;;;;;;10.77;54.89;99184.88;5133548;27;20064;-52
2021/11/09 00:09:56;;;;;;;19.20;5.95;;;;;;;10.77;54.81;99181.47;5133402;27;20035;-52
2021/11/09 00:12:50;;;;;;;13.88;4.65;;;;;;;10.71;54.68;99188.28;5133658;27;20041;-51
2021/11/09 00:15:18;;;;;;;23.20;6.30;;;;;;;10.51;55.03;99174.97;5125350;27;20114;-52
2021/11/09 00:17:45;;;;;;;17.08;5.15;;;;;;;10.56;55.34;99180.47;5133425;27;20030;-52
2021/11/09 00:20:15;;;;;;;25.65;6.07;;;;;;;10.61;55.28;99171.22;5133426;27;20019;-52
2021/11/09 00:22:41;;;;;;;19.98;9.85;;;;;;;10.61;55.22;99171.22;5133405;27;20031;-52
2021/11/09 00:25:08;;;;;;;13.93;6.07;;;;;;;10.58;55.19;99180.28;5133572;27;20027;-52
2021/11/09 00:27:34;;;;;;;15.85;5.38;;;;;;;10.67;55.28;99183.59;5133288;27;20026;-52
2021/11/09 00:30:01;;;;;;;16.65;5.13;;;;;;;10.78;55.21;99183.06;5133274;27;20023;-52
2021/11/09 00:32:28;;;;;;;23.15;5.43;;;;;;;10.83;54.37;99179.91;5133152;27;20019;-51
2021/11/09 00:34:53;;;;;;;15.82;5.07;;;;;;;10.32;55.17;99173.78;5133212;27;20023;-51
2021/11/09 00:37:19;;;;;;;15.20;4.65;;;;;;;10.11;55.83;99164.03;5133162;27;20027;-51
2021/11/09 00:39:45;;;;;;;16.45;5.15;;;;;;;9.96;55.84;99171.13;5133097;27;20380;-51
2021/11/09 00:42:11;;;;;;;13.52;5.82;;;;;;;9.74;56.29;99175.53;5133118;27;20504;-52
2021/11/09 00:44:37;;;;;;;196.00;169.20;;;;;;;9.47;57.11;99171.72;5133025;27;20026;-51
2021/11/09 00:47:04;;;;;;;47.83;36.28;;;;;;;9.34;57.54;99178.41;5132887;27;20019;-51
2021/11/09 00:49:30;;;;;;;30.17;20.27;;;;;;;9.34;57.56;99169.75;5132966;27;20041;-51
2021/11/09 00:51:56;;;;;;;20.77;9.88;;;;;;;9.33;57.53;99182.00;5132880;27;20058;-51
2021/11/09 00:54:22;;;;;;;19.20;5.95;;;;;;;9.32;57.99;99176.97;5114422;28;20043;-51
2021/11/09 00:56:48;;;;;;;15.45;6.00;;;;;;;9.35;58.03;99192.31;5132963;27;20027;-51
2021/11/09 00:59:15;;;;;;;14.05;5.97;;;;;;;9.33;58.06;99192.50;5132828;27;20019;-51
2021/11/09 01:01:41;;;;;;;12.70;4.95;;;;;;;9.33;58.07;99207.41;5132769;27;20023;-51
2021/11/09 01:04:08;;;;;;;14.68;5.35;;;;;;;9.32;58.01;99203.16;5114372;28;20023;-51
2021/11/09 01:06:34;;;;;;;18.20;5.97;;;;;;;9.30;58.35;99207.78;5132696;28;20047;-51
2021/11/09 01:09:00;;;;;;;16.15;5.43;;;;;;;9.32;57.98;99203.97;5132489;28;20074;-51
2021/11/09 01:11:27;;;;;;;19.23;5.45;;;;;;;9.38;58.02;99210.31;5132698;28;20077;-51
2021/11/09 01:13:53;;;;;;;13.38;4.72;;;;;;;9.39;57.87;99202.25;5132658;28;20031;-51
2021/11/09 01:16:19;;;;;;;22.75;6.88;;;;;;;9.40;57.92;99203.88;5132649;28;20015;-52
2021/11/09 01:18:51;;;;;;;12.65;5.70;;;;;;;9.33;58.07;99200.34;5114229;28;20024;-51
2021/11/09 01:21:18;;;;;;;14.07;5.95;;;;;;;9.19;57.90;99201.16;5132650;28;20399;-51
2021/11/09 01:23:47;;;;;;;16.80;6.43;;;;;;;9.05;58.44;99202.75;5132659;28;20016;-51
2021/11/09 01:26:13;;;;;;;17.13;5.70;;;;;;;8.98;58.27;99191.38;5132508;28;20061;-51
2021/11/09 01:28:39;;;;;;;14.82;6.22;;;;;;;8.92;58.53;99190.25;5132581;28;20034;-51
2021/11/09 01:31:07;;;;;;;17.02;5.72;;;;;;;8.90;58.95;99194.88;5132576;28;20023;-51
2021/11/09 01:33:34;;;;;;;18.67;5.88;;;;;;;8.87;59.01;99195.22;5114008;28;20034;-51
2021/11/09 01:36:00;;;;;;;11.98;5.35;;;;;;;8.88;59.09;99193.44;5114067;28;20023;-51
2021/11/09 01:38:26;;;;;;;18.30;5.88;;;;;;;8.92;58.49;99194.69;5132543;28;20488;-51
2021/11/09 01:40:53;;;;;;;16.80;6.63;;;;;;;8.75;59.21;99200.06;5132415;28;20079;-51
2021/11/09 01:43:21;;;;;;;18.67;6.15;;;;;;;8.69;59.56;99192.09;5132416;28;20027;-51
2021/11/09 01:45:48;;;;;;;20.23;7.05;;;;;;;8.69;59.56;99194.69;5132304;28;20384;-51
2021/11/09 01:48:14;;;;;;;20.08;6.45;;;;;;;8.72;59.48;99205.63;5132437;28;20072;-51
2021/11/09 01:50:44;;;;;;;13.00;5.35;;;;;;;8.76;59.49;99200.88;5132388;28;20020;-51
2021/11/09 01:53:10;;;;;;;20.95;6.70;;;;;;;8.90;59.66;99197.47;5114003;28;20035;-51
2021/11/09 01:55:37;;;;;;;12.95;5.63;;;;;;;8.97;58.93;99201.03;5132310;28;20053;-51
2021/11/09 01:58:05;;;;;;;22.33;6.53;;;;;;;8.92;58.79;99199.94;5132282;28;20031;-51
2021/11/09 02:00:34;;;;;;;21.42;6.15;;;;;;;9.06;59.26;99206.19;5132303;28;20035;-52
2021/11/09 02:03:00;;;;;;;15.77;5.32;;;;;;;9.44;58.50;99200.88;5113808;28;20083;-52
2021/11/09 02:05:28;;;;;;;16.42;6.30;;;;;;;9.43;58.10;99199.28;5132187;28;20057;-52
2021/11/09 02:07:57;;;;;;;17.25;5.97;;;;;;;9.47;58.55;99193.50;5132183;28;20023;-51
2021/11/09 02:10:26;;;;;;;15.48;5.68;;;;;;;9.64;58.12;99199.38;5132013;28;20573;-51
2021/11/09 02:12:52;;;;;;;18.02;5.70;;;;;;;9.72;57.75;99206.34;5135044;27;20403;-52
2021/11/09 02:15:19;;;;;;;18.77;6.88;;;;;;;9.67;57.74;99209.47;5135863;27;20500;-51
2021/11/09 02:17:46;;;;;;;22.63;6.18;;;;;;;9.79;57.57;99210.66;5117370;27;20023;-52
2021/11/09 02:20:15;;;;;;;22.92;6.38;;;;;;;9.90;57.16;99212.00;5135913;27;20034;-52
2021/11/09 02:22:41;;;;;;;17.60;5.60;;;;;;;9.96;56.93;99213.06;5117317;27;20012;-52
2021/11/09 02:25:10;;;;;;;14.15;5.50;;;;;;;9.88;56.41;99214.00;5117169;27;20023;-51
2021/11/09 02:27:36;;;;;;;23.15;6.00;;;;;;;9.65;56.96;99208.03;5135725;27;20064;-51
2021/11/09 02:30:04;;;;;;;18.83;6.72;;;;;;;9.76;57.17;99212.84;5135587;27;20067;-51
2021/11/09 02:32:30;;;;;;;19.92;6.20;;;;;;;9.83;57.44;99207.69;5117139;27;20023;-52
2021/11/09 02:34:56;;;;;;;17.58;6.88;;;;;;;9.89;56.44;99206.94;5117081;27;20770;-52
2021/11/09 02:37:22;;;;;;;16.05;6.20;;;;;;;9.87;56.46;99208.94;5135485;27;20400;-51
2021/11/09 02:39:48;;;;;;;17.30;5.88;;;;;;;9.65;56.57;99205.44;5135438;27;20542;-51
2021/11/09 02:42:17;;;;;;;20.95;6.30;;;;;;;9.40;56.82;99208.31;5116832;27;20370;-51
2021/11/09 02:44:59;;;;;;;16.27;6.63;;;;;;;9.14;57.47;99214.78;5135493;27;20384;-51
2021/11/09 02:47:28;;;;;;;17.92;8.07;;;;;;;9.00;57.76;99218.19;5135327;27;20023;-51
2021/11/09 02:49:58;;;;;;;20.00;7.15;;;;;;;8.87;58.26;99231.84;5135217;27;20499;-51
2021/11/09 02:52:26;;;;;;;21.23;6.20;;;;;;;8.80;58.25;99228.31;5135232;27;20493;-51
2021/11/09 02:54:58;;;;;;;15.18;5.60;;;;;;;8.72;58.78;99234.44;5135157;27;20023;-51
2021/11/09 03:02:53;;;;;;;16.55;6.20;;;;;;;8.65;58.99;99219.59;5134996;27;20114;-51
2021/11/09 03:05:43;;;;;;;27.08;8.48;;;;;;;8.64;59.27;99216.16;5135175;27;20042;-51
2021/11/09 03:08:31;;;;;;;25.50;6.97;;;;;;;8.88;58.90;99236.09;5134909;27;20015;-51
2021/11/09 03:10:58;;;;;;;17.77;6.70;;;;;;;8.80;58.98;99239.59;5134887;27;20035;-51
2021/11/09 03:13:24;;;;;;;21.17;6.50;;;;;;;8.51;59.42;99231.63;5134704;27;20023;-51
2021/11/09 03:15:51;;;;;;;21.58;7.30;;;;;;;8.46;60.07;99233.94;5134712;27;20062;-52
2021/11/09 03:18:21;;;;;;;15.52;6.18;;;;;;;8.52;59.83;99228.03;5134694;27;20023;-51
2021/11/09 03:20:56;;;;;;;16.73;6.80;;;;;;;8.56;59.45;99219.66;5134720;27;20030;-51
2021/11/09 03:45:11;;;;;;;12.88;7.13;;;;;;;8.26;60.73;99223.88;5134159;27;20115;-51
2021/11/09 03:47:40;;;;;;;20.40;7.70;;;;;;;8.29;60.98;99222.72;5134130;27;20080;-51
2021/11/09 03:50:09;;;;;;;22.13;7.38;;;;;;;8.30;61.31;99216.53;5133979;27;20091;-51
2021/11/09 03:52:50;;;;;;;21.50;7.72;;;;;;;8.43;60.58;99219.44;5133988;27;20525;-51
2021/11/09 04:00:45;;;;;;;15.68;6.57;;;;;;;8.18;60.35;99232.59;5134105;27;20031;-51
2021/11/09 04:03:57;;;;;;;18.15;8.43;;;;;;;8.15;60.69;99221.69;5133856;27;20023;-51
2021/11/09 04:06:48;;;;;;;20.75;10.35;;;;;;;8.15;60.87;99227.72;5128433;27;20035;-51
2021/11/09 04:09:12;;;;;;;20.65;7.22;;;;;;;8.07;61.36;99234.75;5122178;27;20493;-51
2021/11/09 04:14:39;;;;;;;18.42;7.60;;;;;;;8.28;60.89;99235.00;5133676;27;19922;-51
2021/11/09 04:17:15;;;;;;;22.67;7.82;;;;;;;8.23;60.33;99244.34;5133569;27;20058;-51
2021/11/09 04:41:26;;;;;;;27.90;9.43;;;;;;;8.14;61.37;99227.88;5133156;27;20034;-51
2021/11/09 05:10:21;;;;;;;17.52;8.40;;;;;;;8.39;60.76;99242.47;5132548;28;20062;-51
2021/11/09 05:12:47;;;;;;;21.90;8.52;;;;;;;8.28;60.13;99245.44;5132705;28;20103;-51
2021/11/09 05:15:13;;;;;;;20.13;10.00;;;;;;;8.18;60.47;99247.47;5114253;28;20039;-51
2021/11/09 05:17:39;;;;;;;18.55;8.80;;;;;;;8.14;60.95;99241.75;5132746;28;20019;-51
2021/11/09 05:20:05;;;;;;;19.08;8.88;;;;;;;8.14;60.82;99248.78;5132657;28;20024;-51
2021/11/09 05:22:31;;;;;;;24.48;10.05;;;;;;;8.14;60.62;99246.19;5132604;28;20098;-51
2021/11/09 05:24:57;;;;;;;18.85;9.50;;;;;;;8.11;61.25;99249.97;5132654;28;20106;-51
2021/11/09 05:27:26;;;;;;;20.67;9.10;;;;;;;8.06;61.18;99241.81;5132548;28;20106;-51
2021/11/09 05:29:53;;;;;;;22.35;9.15;;;;;;;8.04;61.03;99251.59;5132610;28;20024;-51
2021/11/09 05:32:19;;;;;;;23.77;10.10;;;;;;;8.02;61.06;99252.78;5132561;28;20518;-51
2021/11/09 05:34:45;;;;;;;21.55;11.02;;;;;;;8.02;61.02;99256.19;5114109;28;20110;-51
2021/11/09 05:37:13;;;;;;;25.65;9.02;;;;;;;8.03;61.48;99252.59;5132485;28;20107;-51
2021/11/09 05:39:48;;;;;;;27.23;11.90;;;;;;;8.03;62.34;99257.84;5132449;28;20031;-51
2021/11/09 05:42:14;;;;;;;32.17;11.38;;;;;;;8.25;61.14;99266.72;5132506;28;20114;-51
2021/11/09 05:44:41;;;;;;;25.65;9.57;;;;;;;8.23;60.87;99273.09;5132374;28;20027;-51
2021/11/09 05:47:07;;;;;;;19.58;9.40;;;;;;;8.06;61.24;99277.59;5115678;27;20054;-51
2021/11/09 05:49:33;;;;;;;23.20;9.82;;;;;;;7.98;62.00;99278.44;5136434;27;20058;-51
2021/11/09 05:52:01;;;;;;;25.27;9.40;;;;;;;7.92;61.75;99281.72;5117903;27;20492;-51
2021/11/09 05:54:27;;;;;;;25.05;10.40;;;;;;;7.87;62.27;99286.63;5136331;27;20611;-51
2021/11/09 05:56:53;;;;;;;25.20;10.13;;;;;;;7.92;61.67;99292.16;5136282;27;20038;-51
2021/11/09 05:59:18;;;;;;;22.27;9.85;;;;;;;7.88;62.05;99286.47;5136284;27;20077;-51
2021/11/09 06:01:44;;;;;;;25.15;10.43;;;;;;;7.98;62.28;99287.06;5136160;27;20103;-51
2021/11/09 06:04:10;;;;;;;24.15;10.30;;;;;;;8.17;62.21;99275.41;5136190;27;20020;-52
2021/11/09 06:06:36;;;;;;;18.88;9.48;;;;;;;8.48;61.10;99274.63;5136036;27;20026;-51
2021/11/09 06:09:02;;;;;;;25.58;9.60;;;;;;;8.57;60.92;99276.22;5135843;27;20039;-52
2021/11/09 06:11:27;;;;;;;20.85;8.88;;;;;;;8.76;60.41;99258.44;5135936;27;20023;-52
2021/11/09 06:13:53;;;;;;;26.85;10.00;;;;;;;8.84;60.43;99261.00;5136204;27;20023;-52
2021/11/09 06:16:19;;;;;;;41.00;20.40;;;;;;;9.08;59.97;99260.00;5135883;27;20015;-52
2021/11/09 06:18:45;;;;;;;19.90;11.05;;;;;;;9.22;59.28;99261.03;5117425;27;20027;-52
2021/11/09 06:21:11;;;;;;;25.80;9.73;;;;;;;9.01;58.77;99264.31;5135800;27;20544;-51
2021/11/09 06:23:36;;;;;;;23.98;12.95;;;;;;;8.78;59.49;99278.22;5135790;27;20097;-51
2021/11/09 06:26:02;;;;;;;31.88;10.50;;;;;;;8.59;60.04;99274.25;5135671;27;20030;-51
2021/11/09 06:28:28;;;;;;;25.85;10.00;;;;;;;8.54;60.33;99291.44;5135630;27;20040;-51
2021/11/09 06:30:54;;;;;;;25.55;10.30;;;;;;;8.33;60.00;99299.84;5135598;27;20023;-51
2021/11/09 06:33:21;;;;;;;37.83;12.68;;;;;;;8.09;61.17;99303.38;5117108;27;20019;-51
2021/11/09 06:35:47;;;;;;;35.88;17.83;;;;;;;7.93;60.98;99309.50;5116982;27;20021;-51
2021/11/09 06:38:13;;;;;;;34.63;16.63;;;;;;;7.76;62.28;99309.50;5135463;27;20019;-51
2021/11/09 06:40:39;;;;;;;23.60;10.80;;;;;;;7.82;61.53;99307.22;5135443;27;20029;-51
2021/11/09 06:43:06;;;;;;;23.77;10.98;;;;;;;7.87;62.07;99313.59;5116934;27;20023;-51
2021/11/09 06:45:31;;;;;;;33.38;13.27;;;;;;;7.97;61.61;99319.44;5135276;27;20076;-51
2021/11/09 06:47:57;;;;;;;31.02;12.05;;;;;;;8.01;61.30;99314.69;5135280;27;20056;-51
2021/11/09 06:50:24;;;;;;;33.92;13.63;;;;;;;8.00;61.37;99319.09;5135257;27;20019;-51
2021/11/09 06:52:50;;;;;;;30.50;13.02;;;;;;;8.02;61.61;99324.16;5135216;27;20019;-51
2021/11/09 06:55:16;;;;;;;39.70;12.23;;;;;;;8.07;61.67;99321.88;5135140;27;20096;-51
2021/11/09 06:57:45;;;;;;;32.28;12.95;;;;;;;8.08;61.96;99318.25;5134989;27;20023;-51
2021/11/09 07:00:14;;;;;;;31.23;11.65;;;;;;;8.04;61.43;99329.22;5116598;27;20019;-51
2021/11/09 07:02:40;;;;;;;32.00;16.70;;;;;;;8.11;62.49;99331.00;5116579;27;20084;-51
2021/11/09 07:05:07;;;;;;;23.95;11.63;;;;;;;8.25;62.00;99345.19;5134909;27;20015;-51
2021/11/09 07:07:33;;;;;;;26.45;11.43;;;;;;;8.31;61.20;99341.88;5134907;27;20516;-51
2021/11/09 07:09:58;;;;;;;30.77;11.93;;;;;;;8.31;60.99;99333.19;5116245;27;20076;-51
2021/11/09 07:12:24;;;;;;;22.75;11.82;;;;;;;8.34;61.31;99335.50;5116366;27;20025;-51
2021/11/09 07:14:51;;;;;;;24.45;11.60;;;;;;;8.51;61.38;99339.72;5116355;27;20480;-52
2021/11/09 07:17:17;;;;;;;28.52;12.35;;;;;;;8.70;60.81;99342.88;5134834;27;20026;-51
2021/11/09 07:19:49;;;;;;;29.50;13.00;;;;;;;8.65;60.09;99339.94;5134697;27;20023;-51
2021/11/09 07:22:16;;;;;;;24.58;12.32;;;;;;;8.54;60.47;99344.59;5134698;27;20027;-51
2021/11/09 07:24:42;;;;;;;22.95;11.25;;;;;;;8.55;60.55;99346.22;5134612;27;20023;-51
2021/11/09 07:27:08;;;;;;;21.77;11.23;;;;;;;8.58;60.51;99350.28;5134510;27;20015;-51
2021/11/09 07:29:34;;;;;;;27.77;11.43;;;;;;;8.58;60.50;99355.53;5134551;27;20029;-51
2021/11/09 07:32:00;;;;;;;30.42;11.52;;;;;;;8.79;60.50;99358.38;5134439;27;20024;-52
2021/11/09 07:34:25;;;;;;;26.73;11.70;;;;;;;9.11;60.47;99353.09;5134375;27;20108;-51
2021/11/09 07:36:52;;;;;;;28.05;12.13;;;;;;;9.46;59.44;99354.31;5134330;27;20125;-52
2021/11/09 07:39:20;;;;;;;24.17;10.80;;;;;;;9.83;58.25;99355.28;5134286;27;20022;-52
2021/11/09 07:41:47;;;;;;;23.98;12.57;;;;;;;9.69;57.06;99358.69;5134215;27;20011;-51
2021/11/09 07:44:14;;;;;;;25.40;11.30;;;;;;;9.08;58.99;99358.69;5134224;27;20023;-52
2021/11/09 07:46:40;;;;;;;18.50;11.77;;;;;;;8.92;58.56;99360.41;5134094;27;20026;-51
2021/11/09 07:49:06;;;;;;;26.63;11.77;;;;;;;8.66;59.16;99360.72;5134045;27;20030;-51
2021/11/09 07:51:32;;;;;;;32.05;14.27;;;;;;;8.64;59.56;99370.53;5115530;27;20024;-51
2021/11/09 07:54:00;;;;;;;22.77;11.98;;;;;;;8.69;59.66;99375.25;5134007;27;20019;-51
2021/11/09 07:56:31;;;;;;;33.05;15.35;;;;;;;8.78;59.36;99377.66;5133943;27;20022;-51
2021/11/09 08:01:44;;;;;;;25.02;12.98;;;;;;;8.85;59.13;99376.97;5133860;27;20098;-51
2021/11/09 08:04:14;;;;;;;31.25;14.32;;;;;;;8.57;59.91;99373.03;5115369;27;20404;-51
2021/11/09 08:06:52;;;;;;;33.20;13.52;;;;;;;8.63;60.19;99373.31;5133695;27;20496;-51
2021/11/09 08:09:22;;;;;;;24.15;12.93;;;;;;;8.82;60.23;99372.91;5132949;27;20148;-51
2021/11/09 08:11:49;;;;;;;24.23;11.93;;;;;;;8.88;59.69;99368.78;5133644;27;20030;-51
2021/11/09 08:14:15;;;;;;;31.60;14.00;;;;;;;8.78;58.95;99366.38;5133514;27;20026;-51
2021/11/09 08:16:41;;;;;;;24.83;14.20;;;;;;;8.64;59.92;99377.59;5115143;27;20019;-51
2021/11/09 08:19:08;;;;;;;39.30;13.65;;;;;;;8.65;59.53;99366.91;5133805;27;20027;-52
2021/11/09 08:21:35;;;;;;;46.45;14.35;;;;;;;8.69;59.78;99364.78;5114993;27;20031;-51
2021/11/09 08:24:02;;;;;;;26.00;14.52;;;;;;;8.68;60.22;99366.59;5114916;27;20024;-51
2021/11/09 08:26:28;;;;;;;33.88;14.05;;;;;;;8.69;59.39;99355.16;5114814;27;20019;-51
2021/11/09 08:28:56;;;;;;;1256.60;736.97;;;;;;;8.57;60.11;99348.66;5133330;27;20023;-52
2021/11/09 08:31:24;;;;;;;894.00;634.38;;;;;;;8.78;60.77;99350.69;5133261;27;20015;-51
2021/11/09 08:33:50;;;;;;;679.95;526.25;;;;;;;9.02;59.56;99346.28;5114798;27;20504;-51
2021/11/09 08:36:22;;;;;;;133.20;89.10;;;;;;;8.97;58.97;99352.88;5133225;27;20430;-51
2021/11/09 08:38:48;;;;;;;46.05;27.73;;;;;;;8.90;59.08;99346.69;5133231;27;20065;-51
2021/11/09 08:41:14;;;;;;;33.17;18.27;;;;;;;9.03;58.98;99350.53;5133133;27;20028;-51
2021/11/09 08:43:46;;;;;;;37.20;18.52;;;;;;;8.97;58.76;99359.88;5133100;27;20378;-51
2021/11/09 08:48:42;;;;;;;45.92;18.55;;;;;;;8.76;59.60;99357.88;5133053;27;20114;-51
2021/11/09 08:51:11;;;;;;;39.90;18.23;;;;;;;8.68;59.53;99361.38;5133039;27;20019;-51
2021/11/09 08:53:42;;;;;;;31.13;15.70;;;;;;;8.85;60.09;99359.47;5132990;27;20114;-51
2021/11/09 09:04:20;;;;;;;27.63;17.00;;;;;;;9.42;58.20;99360.06;5132808;27;20035;-51
2021/11/09 09:06:48;;;;;;;29.27;15.70;;;;;;;9.43;58.67;99364.31;5132777;27;20031;-51
2021/11/09 09:09:16;;;;;;;25.52;14.50;;;;;;;9.43;57.91;99354.66;5132522;27;20136;-51
2021/11/09 09:11:43;;;;;;;25.20;15.40;;;;;;;9.52;58.01;99358.03;5133049;28;20481;-51
2021/11/09 09:14:09;;;;;;;27.58;13.93;;;;;;;9.74;57.21;99359.81;5132719;28;20025;-52
2021/11/09 09:16:38;;;;;;;31.48;14.85;;;;;;;9.55;57.57;99360.28;5097255;28;20027;-51
2021/11/09 09:19:05;;;;;;;37.45;14.77;;;;;;;9.68;57.42;99359.69;5132742;28;20019;-51
2021/11/09 09:21:38;;;;;;;28.20;14.27;;;;;;;9.85;57.28;99370.84;5133421;27;20023;-51
2021/11/09 09:24:57;;;;;;;36.60;16.33;;;;;;;9.94;56.92;99375.84;5136997;27;20061;-51
2021/11/09 09:27:08;;;;;;;32.47;18.35;;;;;;;9.98;56.81;99366.63;5128114;27;20035;-51
2021/11/09 09:29:43;;;;;;;23.58;14.40;;;;;;;10.07;56.46;99369.97;5136912;27;20448;-51
2021/11/09 09:54:28;;;;;;;23.75;12.18;;;;;;;10.47;54.61;99390.72;5136451;27;20084;-51
2021/11/09 09:56:57;;;;;;;21.77;11.05;;;;;;;10.53;54.76;99395.25;5136362;27;20023;-51
2021/11/09 09:59:34;;;;;;;22.35;13.07;;;;;;;10.68;54.20;99397.84;5136261;27;20027;-52
2021/11/09 10:02:08;;;;;;;21.35;11.90;;;;;;;10.68;54.10;99389.97;5136311;27;20524;-51
2021/11/09 10:04:44;;;;;;;25.08;12.00;;;;;;;10.78;53.91;99386.06;5136152;27;20026;-51
2021/11/09 10:07:11;;;;;;;21.80;11.52;;;;;;;11.01;53.68;99392.97;5117675;27;20119;-51
2021/11/09 10:09:44;;;;;;;32.60;12.73;;;;;;;10.99;53.12;99395.78;5135830;27;20032;-51
2021/11/09 10:12:25;;;;;;;25.35;11.88;;;;;;;10.98;53.39;99395.97;5136070;27;20500;-51
2021/11/09 10:14:56;;;;;;;23.77;12.00;;;;;;;11.05;53.42;99402.13;5135982;27;20106;-51
2021/11/09 10:17:27;;;;;;;21.55;11.35;;;;;;;11.10;53.16;99398.91;5135960;27;20031;-52
2021/11/09 10:19:58;;;;;;;24.13;12.35;;;;;;;11.05;53.07;99399.50;5135950;27;20412;-52
2021/11/09 10:22:32;;;;;;;25.15;12.48;;;;;;;10.89;53.67;99395.28;5135769;27;20057;-51
2021/11/09 10:25:07;;;;;;;29.67;13.57;;;;;;;10.89;53.10;99386.59;5117319;27;20019;-51
2021/11/09 10:27:36;;;;;;;26.92;11.60;;;;;;;10.88;53.17;99388.38;5135763;27;20031;-51
2021/11/09 10:30:09;;;;;;;19.35;11.32;;;;;;;11.16;52.92;99387.66;5135663;27;20493;-51
2021/11/09 10:32:37;;;;;;;23.63;11.82;;;;;;;11.31;52.76;99388.44;5116616;27;20030;-51
2021/11/09 10:35:06;;;;;;;24.80;12.38;;;;;;;11.51;52.47;99374.66;5135555;27;20094;-51
2021/11/09 10:37:35;;;;;;;18.50;11.82;;;;;;;11.66;51.62;99375.38;5135571;27;20027;-52
2021/11/09 10:40:13;;;;;;;27.85;11.50;;;;;;;11.56;51.95;99383.59;5116963;27;20535;-51
2021/11/09 10:42:42;;;;;;;213.57;193.13;;;;;;;11.66;51.91;99383.28;5117054;27;20061;-51
2021/11/09 10:45:10;;;;;;;85.32;57.92;;;;;;;11.91;51.29;99380.25;5116954;27;20385;-51
2021/11/09 10:47:41;;;;;;;27.73;15.55;;;;;;;12.16;50.58;99378.00;5135374;27;20055;-51
2021/11/09 10:50:15;;;;;;;26.10;12.43;;;;;;;12.18;50.23;99370.72;5135279;27;20500;-51
2021/11/09 10:52:42;;;;;;;19.52;12.77;;;;;;;12.08;50.05;99357.91;5135287;27;20023;-51
2021/11/09 10:55:36;;;;;;;18.95;12.60;;;;;;;12.12;50.12;99358.34;5135387;27;20024;-51
2021/11/09 11:03:34;;;;;;;226.32;110.20;;;;;;;12.30;49.66;99340.22;5135065;27;20032;-51
2021/11/09 11:06:12;;;;;;;44.03;26.33;;;;;;;12.33;50.08;99350.34;5134965;27;20026;-51
2021/11/09 11:08:39;;;;;;;36.35;22.15;;;;;;;12.53;49.20;99342.53;5134712;27;20047;-51
2021/11/09 11:11:28;;;;;;;33.78;19.10;;;;;;;12.66;48.84;99343.63;5116430;27;20516;-51
2021/11/09 11:14:16;;;;;;;22.95;14.85;;;;;;;12.64;48.89;99349.06;5134882;27;20023;-52
2021/11/09 11:16:57;;;;;;;21.23;13.75;;;;;;;12.70;48.84;99352.75;5134340;27;20043;-51
2021/11/09 11:19:44;;;;;;;21.10;12.45;;;;;;;12.58;48.99;99365.66;5134745;27;20038;-52
2021/11/09 11:22:17;;;;;;;25.27;12.30;;;;;;;12.31;48.96;99354.19;5116241;27;20031;-52
2021/11/09 11:24:44;;;;;;;20.17;12.32;;;;;;;12.21;49.22;99359.00;5134600;27;20421;-52
2021/11/09 11:27:12;;;;;;;22.92;11.85;;;;;;;12.27;49.02;99345.06;5134452;27;20019;-52
2021/11/09 11:29:40;;;;;;;21.23;12.30;;;;;;;12.36;48.85;99351.78;5134539;27;20022;-51
2021/11/09 11:32:11;;;;;;;20.58;13.80;;;;;;;12.47;48.97;99348.59;5134465;27;20016;-51
2021/11/09 11:34:38;;;;;;;21.23;12.20;;;;;;;12.91;48.47;99342.03;5134467;27;20033;-51
2021/11/09 11:37:04;;;;;;;23.50;11.90;;;;;;;13.33;47.89;99342.75;5134329;27;20098;-52
2021/11/09 11:39:33;;;;;;;20.65;11.32;;;;;;;13.69;47.10;99340.75;5115879;27;20050;-52
2021/11/09 11:42:07;;;;;;;22.52;12.20;;;;;;;13.83;46.42;99334.44;5134264;27;20506;-52
2021/11/09 11:44:33;;;;;;;18.05;11.38;;;;;;;13.60;46.39;99340.13;5133371;27;20031;-52
2021/11/09 11:47:02;;;;;;;24.77;11.70;;;;;;;13.33;46.66;99340.13;5115609;27;20063;-52
2021/11/09 11:49:40;;;;;;;21.58;12.30;;;;;;;13.23;47.13;99342.31;5134176;27;20051;-51
2021/11/09 11:52:18;;;;;;;25.52;13.40;;;;;;;13.30;47.20;99324.72;5134063;27;20528;-51
2021/11/09 11:54:49;;;;;;;21.35;11.85;;;;;;;13.15;47.14;99313.50;5134133;27;20088;-51
2021/11/09 11:57:29;;;;;;;19.58;11.40;;;;;;;12.79;47.59;99302.31;5115425;27;20113;-52
2021/11/09 11:59:56;;;;;;;20.38;12.52;;;;;;;12.64;48.50;99300.88;5115442;27;20027;-51
2021/11/09 12:02:36;;;;;;;18.38;12.10;;;;;;;12.53;48.22;99300.41;5133877;27;20050;-51
2021/11/09 12:05:07;;;;;;;22.15;11.15;;;;;;;12.42;48.58;99297.56;5132614;27;20493;-51
2021/11/09 12:07:54;;;;;;;21.10;13.00;;;;;;;12.50;48.46;99295.56;5115382;27;20027;-51
2021/11/09 12:10:21;;;;;;;23.38;11.70;;;;;;;12.64;48.54;99291.13;5111671;28;20131;-51
2021/11/09 12:13:14;;;;;;;29.52;12.50;;;;;;;12.84;47.96;99288.56;5111870;28;20032;-51
2021/11/09 12:16:02;;;;;;;28.48;13.43;;;;;;;12.93;47.89;99291.78;5108578;28;20031;-51
2021/11/09 12:18:28;;;;;;;19.65;13.13;;;;;;;12.95;47.19;99287.94;5111863;28;20404;-51
2021/11/09 12:20:55;;;;;;;29.88;13.13;;;;;;;12.84;47.42;99291.19;5113032;28;20026;-52
2021/11/09 12:23:21;;;;;;;23.25;12.98;;;;;;;12.90;47.41;99300.91;5111605;28;20027;-51
2021/11/09 12:25:50;;;;;;;25.40;13.52;;;;;;;12.75;47.71;99293.16;5111557;28;20019;-51
2021/11/09 12:28:17;;;;;;;22.50;13.15;;;;;;;12.64;47.87;99301.66;5111545;28;20023;-52
2021/11/09 12:30:44;;;;;;;111.30;99.68;;;;;;;12.51;47.95;99301.63;5112849;28;20060;-51
2021/11/09 12:33:27;;;;;;;43.53;24.55;;;;;;;12.41;48.57;99302.00;5112816;28;20019;-51
2021/11/09 12:35:59;;;;;;;21.08;14.27;;;;;;;12.45;48.69;99290.06;5111471;28;20028;-52
2021/11/09 12:38:43;;;;;;;27.27;13.55;;;;;;;12.63;48.22;99293.97;5111409;28;20093;-51
2021/11/09 12:41:29;;;;;;;21.10;12.43;;;;;;;12.51;48.05;99299.78;5112584;28;20022;-51
2021/11/09 12:44:08;;;;;;;21.83;12.68;;;;;;;12.48;48.05;99294.13;5112726;28;20084;-51
2021/11/09 12:46:40;;;;;;;22.70;13.20;;;;;;;12.34;48.40;99309.88;5112552;28;20029;-51
2021/11/09 12:49:19;;;;;;;1646.45;978.17;;;;;;;11.95;49.01;99313.94;5112531;28;20019;-51
2021/11/09 12:51:48;;;;;;;421.40;270.95;;;;;;;11.52;50.12;99319.25;5112456;28;20133;-51
2021/11/09 12:54:20;;;;;;;118.10;92.47;;;;;;;11.37;50.79;99321.97;5111124;28;20153;-51
2021/11/09 12:57:01;;;;;;;119.60;94.57;;;;;;;11.32;50.52;99311.22;5110901;28;20027;-51
2021/11/09 12:59:42;;;;;;;35.15;22.75;;;;;;;11.30;50.50;99309.78;5112462;28;20114;-51
2021/11/09 13:02:39;;;;;;;886.33;704.30;;;;;;;11.29;50.84;99305.53;5111080;28;20023;-51
2021/11/09 13:05:22;;;;;;;709.33;357.85;;;;;;;11.46;50.98;99309.50;5112388;28;20439;-51
2021/11/09 13:07:49;;;;;;;140.25;76.88;;;;;;;11.69;50.46;99309.28;5112306;28;20038;-51
2021/11/09 13:10:21;;;;;;;66.68;35.85;;;;;;;11.74;49.94;99303.44;5126769;27;20049;-51
2021/11/09 13:12:50;;;;;;;55.00;28.85;;;;;;;11.67;50.11;99302.56;5132823;28;20023;-51
2021/11/09 13:15:21;;;;;;;36.20;19.73;;;;;;;11.74;50.26;99303.44;5132608;28;20055;-51
2021/11/09 13:17:49;;;;;;;34.42;15.27;;;;;;;11.80;49.88;99306.09;5132718;28;20019;-51
2021/11/09 13:20:22;;;;;;;23.38;14.00;;;;;;;11.74;50.12;99306.88;5132665;28;20015;-51
2021/11/09 13:22:57;;;;;;;26.73;14.60;;;;;;;11.55;50.38;99305.75;5114265;28;20497;-51
2021/11/09 13:25:30;;;;;;;22.05;13.13;;;;;;;11.44;51.10;99315.97;5132517;28;20106;-51
2021/11/09 13:27:56;;;;;;;20.25;13.40;;;;;;;11.59;50.91;99328.03;5132652;28;20020;-51
2021/11/09 13:30:25;;;;;;;19.65;11.90;;;;;;;11.73;50.41;99328.09;5114117;28;20438;-51
2021/11/09 13:32:54;;;;;;;27.70;15.45;;;;;;;11.55;50.61;99326.78;5114081;28;20377;-51
2021/11/09 13:35:26;;;;;;;24.48;13.15;;;;;;;11.59;50.76;99314.06;5114035;28;20033;-51
2021/11/09 13:38:10;;;;;;;25.58;12.35;;;;;;;11.56;50.80;99325.75;5132511;28;20072;-51
2021/11/09 13:40:44;;;;;;;25.73;12.55;;;;;;;11.48;50.54;99335.59;5132478;28;20080;-51
2021/11/09 13:43:12;;;;;;;21.38;12.57;;;;;;;11.48;50.99;99343.50;5132523;28;20092;-51